CheckWX is a tool to help pilots better visualize weather data.  It is not intended as a substitute for an official pre-flight weather briefing.

06:56:49 UTC

SBLO TAF
Governador José Richa Airport
Londrina, Brazil
TAF SBLO 242200Z 2500/2512 27005KT 9999 SCT025 TN10/2506Z TX14/2512Z RMK PEM

May-25@
00:00 UTC

May-25 @ 00:00 UTC

May-25@
12:00 UTC

May-25 @ 12:00 UTC

TAF SBLO 242200Z 2500/2512 27005KT 9999 SCT025 TN10/2506Z TX14/2512Z RMK PEM
Wind
  • 270° at 5 KTS
Cloud Levels
  • Scattered at 2,500' AGL